Accueil
METAR-TAF:

METAR-TAF

Aéroports :

Djeddah, Arabie saoudite

Aéroport international Roi-Abdelaziz

latitude: 21-42N, longitude: 039-11E, altitude: 15 m

Observation

Le bulletin a été fait il y a 55 minutes, à 03:00 UTC
Vent 6 kt de ouest/nord-ouest
Température 28°C
Humidité 84%
Pression 1007 hPa
Visibilité 10 km ou plus
Nuages épars à une hauteur de 3500 ft

METAR: OEJN 230300Z 30006KT 9999 SCT035 28/25 Q1007 NOSIG

Heure: 06:55 (03:55 UTC)

Prévision

Le bulletin a été fait il y a 4 heures et 55 minutes, à 23:00 UTC
Prévision valable du 23 à 00 UTC au 24 à 06 UTC
Vent 5 kt de nord-est
Visibilité 10 km ou plus
pas de nuages en-dessous de 1500 mètres et pas de cumulonimbus.
Evoluant progressivement
du 23 à 04 UTC au 23 à 06 UTC
Vent 15 kt de nord/nord-ouest

TAF: OEJN 222300Z 2300/2406 04005KT CAVOK BECMG 2304/2306 33015KT

Observations et prévisions météorologiques de plus de 4000 aéroports (messages METAR et TAF).

Les stations disponibles sont représentées par des disques jaunes et rouges sur la carte.

Passer la souris dessus pour voir le nom de la station.

Cliquer dessus pour voir les observations et prévisions météorologiques.

Pour changer de carte: cliquez sur les boutons verts avec une croix noire pour zoomer, sur le bouton vert avec un tiret pour effectuer un zoom arrière, ou sur les flèches vertes pour les cartes adjacentes.


METAR-TAF: